createdAt,value
2023-04-16T00:00:24.952Z,31.94
2023-04-16T00:01:24.980Z,31.94
2023-04-16T00:02:25.094Z,31.94
2023-04-16T00:03:25.244Z,31.94
2023-04-16T00:04:25.288Z,31.95
2023-04-16T00:05:25.105Z,31.95
2023-04-16T00:06:25.140Z,31.93
2023-04-16T00:07:25.171Z,31.95
2023-04-16T00:08:25.212Z,31.95
2023-04-16T00:09:25.229Z,31.93
2023-04-16T00:10:25.270Z,31.94
2023-04-16T00:11:25.309Z,31.94
2023-04-16T00:12:25.344Z,31.95
2023-04-16T00:13:25.373Z,31.95
2023-04-16T00:14:25.393Z,31.96
2023-04-16T00:15:25.428Z,31.94
2023-04-16T00:16:25.518Z,31.96
2023-04-16T00:17:25.515Z,31.95
2023-04-16T00:18:25.543Z,31.96
2023-04-16T00:19:25.566Z,31.95
2023-04-16T00:20:25.590Z,31.94
2023-04-16T00:21:25.626Z,31.96
2023-04-16T00:22:25.653Z,31.96
2023-04-16T00:23:25.695Z,31.96
2023-04-16T00:24:25.724Z,31.96
2023-04-16T00:25:25.763Z,31.95
2023-04-16T00:26:25.803Z,31.97
2023-04-16T00:27:25.829Z,31.99
2023-04-16T00:28:25.858Z,31.96
2023-04-16T00:29:25.889Z,31.95
2023-04-16T00:30:25.928Z,31.97
2023-04-16T00:31:25.986Z,31.98
2023-04-16T00:32:26.819Z,31.98
2023-04-16T00:33:26.039Z,31.95
2023-04-16T00:34:26.057Z,31.97
2023-04-16T00:35:26.094Z,31.98
2023-04-16T00:36:26.123Z,31.97
2023-04-16T00:37:26.164Z,31.96
2023-04-16T00:38:26.193Z,31.98
2023-04-16T00:39:26.256Z,31.99
2023-04-16T00:40:26.270Z,31.98
2023-04-16T00:41:26.301Z,31.97
2023-04-16T00:42:26.368Z,32.01
2023-04-16T00:43:26.370Z,32.00
2023-04-16T00:44:26.404Z,31.99
2023-04-16T00:45:26.460Z,32.00
2023-04-16T00:46:26.497Z,32.00
2023-04-16T00:47:26.550Z,31.99
2023-04-16T00:48:26.553Z,32.00
2023-04-16T00:49:26.584Z,32.00
2023-04-16T00:50:26.630Z,31.98
2023-04-16T00:51:26.668Z,32.01
2023-04-16T00:52:26.704Z,31.99
2023-04-16T00:53:26.734Z,31.99
2023-04-16T00:54:26.765Z,32.01
2023-04-16T00:55:26.802Z,32.01
2023-04-16T00:56:26.854Z,31.99
2023-04-16T00:57:26.879Z,32.01
2023-04-16T00:58:26.914Z,31.99
2023-04-16T00:59:26.955Z,32.00
2023-04-16T01:00:27.010Z,32.01
2023-04-16T01:01:27.069Z,32.01
2023-04-16T01:02:27.168Z,32.01
2023-04-16T01:03:27.347Z,31.99
2023-04-16T01:04:27.185Z,32.01
2023-04-16T01:05:27.179Z,32.00
2023-04-16T01:06:27.215Z,32.01
2023-04-16T01:07:27.240Z,32.02
2023-04-16T01:08:27.275Z,32.01
2023-04-16T01:09:27.322Z,32.01
2023-04-16T01:10:27.354Z,32.02
2023-04-16T01:11:27.404Z,32.02
2023-04-16T01:12:27.426Z,32.01
2023-04-16T01:13:27.458Z,32.01
2023-04-16T01:14:27.481Z,32.02
2023-04-16T01:15:27.516Z,32.01
2023-04-16T01:16:27.648Z,32.01
2023-04-16T01:17:27.651Z,32.02
2023-04-16T01:18:27.641Z,32.04
2023-04-16T01:19:27.685Z,32.02
2023-04-16T01:20:27.722Z,32.01
2023-04-16T01:21:27.761Z,32.02
2023-04-16T01:22:27.797Z,32.02
2023-04-16T01:23:27.833Z,32.01
2023-04-16T01:24:27.876Z,32.02
2023-04-16T01:25:27.907Z,32.03
2023-04-16T01:26:27.952Z,32.05
2023-04-16T01:27:27.994Z,32.03
2023-04-16T01:28:28.118Z,32.05
2023-04-16T01:29:28.059Z,32.04
2023-04-16T01:30:28.104Z,32.02
2023-04-16T01:31:28.192Z,32.01
2023-04-16T01:32:28.270Z,32.01
2023-04-16T01:33:28.216Z,32.02
2023-04-16T01:34:28.251Z,32.03
2023-04-16T01:35:28.284Z,32.03
2023-04-16T01:36:28.318Z,32.04
2023-04-16T01:37:28.368Z,32.05
2023-04-16T01:38:28.396Z,32.03
2023-04-16T01:39:28.440Z,32.03
2023-04-16T01:40:28.486Z,32.02
2023-04-16T01:41:28.521Z,32.04
2023-04-16T01:42:28.559Z,32.03
2023-04-16T01:43:28.593Z,32.04
2023-04-16T01:44:28.626Z,32.03
2023-04-16T01:45:28.670Z,32.03
2023-04-16T01:46:28.758Z,32.02
2023-04-16T01:47:28.787Z,32.03
2023-04-16T01:48:28.799Z,32.06
2023-04-16T01:49:28.817Z,32.05
2023-04-16T01:50:28.865Z,32.04
2023-04-16T01:51:28.900Z,32.04
2023-04-16T01:52:28.944Z,32.01
2023-04-16T01:53:28.987Z,32.02
2023-04-16T01:54:29.019Z,32.04
2023-04-16T01:55:29.055Z,32.04
2023-04-16T01:56:29.094Z,32.05
2023-04-16T01:57:29.131Z,32.06
2023-04-16T01:58:29.172Z,32.05
2023-04-16T01:59:29.278Z,32.04
2023-04-16T02:00:29.245Z,32.04
2023-04-16T02:01:29.345Z,32.06
2023-04-16T02:02:29.477Z,32.03
2023-04-16T02:03:29.470Z,32.04
2023-04-16T02:04:29.403Z,32.04
2023-04-16T02:05:29.433Z,32.03
2023-04-16T02:06:29.463Z,32.06
2023-04-16T02:07:29.520Z,32.05
2023-04-16T02:08:29.554Z,32.07
2023-04-16T02:09:29.584Z,32.05
2023-04-16T02:10:29.615Z,32.06
2023-04-16T02:11:29.660Z,32.05
2023-04-16T02:12:29.699Z,32.05
2023-04-16T02:13:29.726Z,32.05
2023-04-16T02:14:29.765Z,32.07
2023-04-16T02:15:29.788Z,32.06
2023-04-16T02:16:29.885Z,32.08
2023-04-16T02:17:29.890Z,32.05
2023-04-16T02:18:29.904Z,32.05
2023-04-16T02:19:29.943Z,32.05
2023-04-16T02:20:29.989Z,32.05
2023-04-16T02:21:30.022Z,32.09
2023-04-16T02:22:30.047Z,32.05
2023-04-16T02:23:30.101Z,32.07
2023-04-16T02:24:30.129Z,32.05
2023-04-16T02:25:30.162Z,32.07
2023-04-16T02:26:30.200Z,32.04
2023-04-16T02:27:30.239Z,32.04
2023-04-16T02:28:30.270Z,32.06
2023-04-16T02:29:30.319Z,32.06
2023-04-16T02:30:30.346Z,32.07
2023-04-16T02:31:30.460Z,32.05
2023-04-16T02:32:30.464Z,32.05
2023-04-16T02:33:30.467Z,32.04
2023-04-16T02:34:30.504Z,32.07
2023-04-16T02:35:30.532Z,32.04
2023-04-16T02:36:30.575Z,32.06
2023-04-16T02:37:30.613Z,32.07
2023-04-16T02:38:30.645Z,32.06
2023-04-16T02:39:30.677Z,32.06
2023-04-16T02:40:30.710Z,32.04
2023-04-16T02:41:30.747Z,32.06
2023-04-16T02:42:30.780Z,32.05
2023-04-16T02:43:30.824Z,32.06
2023-04-16T02:44:30.853Z,32.06
2023-04-16T02:45:30.873Z,32.04
2023-04-16T02:46:31.013Z,32.06
2023-04-16T02:47:31.027Z,32.05
2023-04-16T02:48:31.006Z,32.06
2023-04-16T02:49:31.036Z,32.07
2023-04-16T02:50:31.074Z,32.08
2023-04-16T02:51:31.107Z,32.06
2023-04-16T02:52:31.139Z,32.07
2023-04-16T02:53:31.179Z,32.08
2023-04-16T02:54:31.217Z,32.03
2023-04-16T02:55:31.253Z,32.05
2023-04-16T02:56:31.285Z,32.07
2023-04-16T02:57:31.326Z,32.05
2023-04-16T02:58:31.357Z,32.07
2023-04-16T02:59:31.418Z,32.05
2023-04-16T03:00:31.441Z,32.07
2023-04-16T03:01:31.527Z,32.05
2023-04-16T03:02:31.678Z,32.08
2023-04-16T03:03:31.569Z,32.08
2023-04-16T03:04:31.634Z,32.05
2023-04-16T03:05:31.657Z,32.08
2023-04-16T03:06:31.709Z,32.07
2023-04-16T03:07:31.717Z,32.08
2023-04-16T03:08:31.758Z,32.07
2023-04-16T03:09:31.806Z,32.09
2023-04-16T03:10:31.831Z,32.08
2023-04-16T03:11:31.881Z,32.10
2023-04-16T03:12:31.921Z,32.07
2023-04-16T03:13:31.952Z,32.06
2023-04-16T03:14:32.000Z,32.07
2023-04-16T03:15:32.078Z,32.06
2023-04-16T03:16:32.072Z,32.06
2023-04-16T03:17:32.144Z,32.06
2023-04-16T03:18:32.180Z,32.05
2023-04-16T03:19:32.195Z,32.06
2023-04-16T03:20:32.231Z,32.06
2023-04-16T03:21:32.269Z,32.07
2023-04-16T03:22:32.303Z,32.07
2023-04-16T03:23:32.348Z,32.07
2023-04-16T03:24:32.374Z,32.08
2023-04-16T03:25:32.406Z,32.06
2023-04-16T03:26:32.470Z,32.03
2023-04-16T03:27:32.480Z,32.04
2023-04-16T03:28:32.525Z,32.08
2023-04-16T03:29:32.555Z,32.08
2023-04-16T03:30:32.596Z,32.05
2023-04-16T03:31:32.675Z,32.05
2023-04-16T03:32:32.687Z,32.07
2023-04-16T03:33:32.697Z,32.06
2023-04-16T03:34:32.748Z,32.04
2023-04-16T03:35:32.768Z,32.05
2023-04-16T03:36:32.798Z,32.04
2023-04-16T03:37:32.860Z,32.07
2023-04-16T03:38:32.884Z,32.06
2023-04-16T03:39:32.924Z,32.03
2023-04-16T03:40:32.952Z,32.03
2023-04-16T03:41:33.019Z,32.05
2023-04-16T03:42:33.027Z,32.05
2023-04-16T03:43:33.079Z,32.04
2023-04-16T03:44:33.108Z,32.03
2023-04-16T03:45:33.145Z,32.08
2023-04-16T03:46:33.248Z,32.06
2023-04-16T03:47:33.279Z,32.04
2023-04-16T03:48:33.260Z,32.03
2023-04-16T03:49:33.294Z,32.08
2023-04-16T03:50:33.319Z,32.07
2023-04-16T03:51:33.514Z,32.06
2023-04-16T03:52:33.408Z,32.08
2023-04-16T03:53:33.456Z,32.07
2023-04-16T03:54:33.488Z,32.07
2023-04-16T03:55:33.533Z,32.07
2023-04-16T03:56:33.570Z,32.05
2023-04-16T03:57:33.596Z,32.05
2023-04-16T03:58:33.646Z,32.07
2023-04-16T03:59:33.689Z,32.08
2023-04-16T04:00:33.720Z,32.07
2023-04-16T04:01:33.773Z,32.06
2023-04-16T04:02:33.898Z,32.06
2023-04-16T04:03:34.064Z,32.07
2023-04-16T04:04:34.031Z,32.07
2023-04-16T04:05:33.927Z,32.07
2023-04-16T04:06:33.968Z,32.07
2023-04-16T04:07:34.000Z,32.08
2023-04-16T04:08:34.050Z,32.10
2023-04-16T04:09:34.092Z,32.07
2023-04-16T04:10:34.124Z,32.07
2023-04-16T04:11:34.163Z,32.08
2023-04-16T04:12:34.204Z,32.08
2023-04-16T04:13:34.236Z,32.07
2023-04-16T04:14:34.284Z,32.07
2023-04-16T04:15:34.330Z,32.10
2023-04-16T04:16:34.370Z,32.10
2023-04-16T04:17:34.424Z,32.07
2023-04-16T04:18:34.457Z,32.07
2023-04-16T04:19:34.487Z,32.07
2023-04-16T04:20:34.535Z,32.06
2023-04-16T04:21:34.571Z,32.07
2023-04-16T04:22:34.617Z,32.06
2023-04-16T04:23:34.649Z,32.07
2023-04-16T04:24:34.695Z,32.09
2023-04-16T04:25:34.738Z,32.09
2023-04-16T04:26:34.858Z,32.07
2023-04-16T04:27:34.815Z,32.08
2023-04-16T04:28:34.872Z,32.07
2023-04-16T04:29:34.907Z,32.10
2023-04-16T04:30:34.962Z,32.08
2023-04-16T04:31:35.026Z,32.10
2023-04-16T04:32:35.076Z,32.09
2023-04-16T04:33:35.079Z,32.11
2023-04-16T04:34:35.124Z,32.08
2023-04-16T04:35:35.164Z,32.07
2023-04-16T04:36:35.199Z,32.08
2023-04-16T04:37:35.252Z,32.04
2023-04-16T04:38:35.288Z,32.10
2023-04-16T04:39:35.325Z,32.09
2023-04-16T04:40:35.368Z,32.09
2023-04-16T04:41:35.412Z,32.06
2023-04-16T04:42:35.446Z,32.07
2023-04-16T04:43:35.495Z,32.07
2023-04-16T04:44:35.552Z,32.08
2023-04-16T04:45:35.576Z,32.05
2023-04-16T04:46:35.626Z,32.09
2023-04-16T04:47:35.706Z,32.10
2023-04-16T04:48:35.717Z,32.10
2023-04-16T04:49:35.740Z,32.09
2023-04-16T04:50:35.791Z,32.08
2023-04-16T04:51:35.822Z,32.08
2023-04-16T04:52:35.869Z,32.06
2023-04-16T04:53:35.906Z,32.10
2023-04-16T04:54:35.941Z,32.06
2023-04-16T04:55:35.984Z,32.10
2023-04-16T04:56:36.022Z,32.10
2023-04-16T04:57:36.059Z,32.07
2023-04-16T04:58:36.123Z,32.08
2023-04-16T04:59:36.142Z,32.08
2023-04-16T05:00:36.193Z,32.08
2023-04-16T05:01:36.279Z,32.07
2023-04-16T05:02:36.359Z,32.09
2023-04-16T05:03:36.453Z,32.07
2023-04-16T05:04:36.385Z,32.09
2023-04-16T05:05:36.379Z,32.06
2023-04-16T05:06:36.424Z,32.06
2023-04-16T05:07:36.464Z,32.07
2023-04-16T05:08:36.518Z,32.10
2023-04-16T05:09:36.542Z,32.06
2023-04-16T05:10:36.575Z,32.04
2023-04-16T05:11:36.612Z,32.07
2023-04-16T05:12:36.657Z,32.09
2023-04-16T05:13:36.687Z,32.07
2023-04-16T05:14:36.732Z,32.06
2023-04-16T05:15:36.789Z,32.04
2023-04-16T05:16:36.860Z,32.05
2023-04-16T05:17:36.879Z,32.07
2023-04-16T05:18:36.888Z,32.06
2023-04-16T05:19:36.926Z,32.07
2023-04-16T05:20:36.959Z,32.08
2023-04-16T05:21:37.007Z,32.07
2023-04-16T05:22:37.061Z,32.08
2023-04-16T05:23:37.091Z,32.06
2023-04-16T05:24:37.144Z,32.06
2023-04-16T05:25:37.167Z,32.07
2023-04-16T05:26:37.220Z,32.09
2023-04-16T05:27:37.276Z,32.07
2023-04-16T05:28:37.304Z,32.06
2023-04-16T05:29:37.350Z,32.08
2023-04-16T05:30:37.434Z,32.06
2023-04-16T05:31:37.438Z,32.07
2023-04-16T05:32:37.527Z,32.08
2023-04-16T05:33:37.532Z,32.07
2023-04-16T05:34:37.570Z,32.08
2023-04-16T05:35:37.612Z,32.09
2023-04-16T05:36:37.648Z,32.06
2023-04-16T05:37:37.692Z,32.09
2023-04-16T05:38:37.749Z,32.07
2023-04-16T05:39:37.772Z,32.06
2023-04-16T05:40:37.813Z,32.06
2023-04-16T05:41:37.862Z,32.09
2023-04-16T05:42:37.898Z,32.07
2023-04-16T05:43:37.934Z,32.09
2023-04-16T05:44:37.980Z,32.06
2023-04-16T05:45:38.015Z,32.07
2023-04-16T05:46:38.179Z,32.06
2023-04-16T05:47:38.176Z,32.06
2023-04-16T05:48:38.161Z,32.05
2023-04-16T05:49:38.191Z,32.06
2023-04-16T05:50:38.232Z,32.05
2023-04-16T05:51:38.265Z,32.04
2023-04-16T05:52:38.301Z,32.07
2023-04-16T05:53:38.354Z,32.07
2023-04-16T05:54:38.383Z,32.04
2023-04-16T05:55:38.424Z,32.04
2023-04-16T05:56:38.467Z,32.06
2023-04-16T05:57:38.545Z,32.04
2023-04-16T05:58:38.556Z,32.06
2023-04-16T05:59:38.593Z,32.08
2023-04-16T06:00:38.646Z,32.02
2023-04-16T06:01:38.667Z,32.03
2023-04-16T06:02:39.037Z,32.05
2023-04-16T06:03:38.949Z,32.07
2023-04-16T06:04:38.805Z,32.07
2023-04-16T06:05:38.975Z,32.06
2023-04-16T06:06:38.893Z,32.08
2023-04-16T06:07:38.926Z,32.03
2023-04-16T06:08:38.979Z,32.03
2023-04-16T06:09:39.010Z,32.05
2023-04-16T06:10:39.046Z,32.06
2023-04-16T06:11:39.101Z,32.05
2023-04-16T06:12:39.148Z,32.06
2023-04-16T06:13:39.173Z,32.06
2023-04-16T06:14:39.228Z,32.06
2023-04-16T06:15:39.278Z,32.04
2023-04-16T06:16:39.304Z,32.08
2023-04-16T06:17:39.372Z,32.05
2023-04-16T06:18:39.385Z,32.07
2023-04-16T06:19:39.432Z,32.08
2023-04-16T06:20:39.475Z,32.06
2023-04-16T06:21:39.513Z,32.05
2023-04-16T06:22:39.557Z,32.05
2023-04-16T06:23:39.593Z,32.06
2023-04-16T06:24:39.625Z,32.04
2023-04-16T06:25:39.679Z,32.06
2023-04-16T06:26:39.717Z,32.05
2023-04-16T06:27:39.754Z,32.02
2023-04-16T06:28:39.812Z,32.06
2023-04-16T06:29:41.693Z,32.07
2023-04-16T06:30:39.887Z,32.08
2023-04-16T06:31:39.985Z,32.05
2023-04-16T06:32:40.026Z,32.07
2023-04-16T06:33:40.020Z,32.06
2023-04-16T06:34:40.075Z,32.07
2023-04-16T06:35:40.130Z,32.06
2023-04-16T06:36:40.148Z,32.06
2023-04-16T06:37:40.198Z,32.06
2023-04-16T06:38:40.249Z,32.08
2023-04-16T06:39:40.279Z,32.04
2023-04-16T06:40:40.333Z,32.07
2023-04-16T06:41:40.363Z,32.05
2023-04-16T06:42:40.528Z,32.04
2023-04-16T06:43:40.463Z,32.05
2023-04-16T06:44:40.490Z,32.05
2023-04-16T06:45:40.537Z,32.06
2023-04-16T06:46:40.633Z,32.06
2023-04-16T06:47:40.761Z,32.06
2023-04-16T06:48:40.676Z,32.06
2023-04-16T06:49:40.708Z,32.06
2023-04-16T06:50:40.766Z,32.06
2023-04-16T06:51:40.790Z,32.06
2023-04-16T06:52:40.843Z,32.08
2023-04-16T06:53:40.892Z,32.07
2023-04-16T06:54:40.916Z,32.03
2023-04-16T06:55:40.971Z,32.06
2023-04-16T06:56:41.010Z,32.06
2023-04-16T06:57:41.044Z,32.05
2023-04-16T06:58:41.109Z,32.06
2023-04-16T06:59:41.133Z,32.04
2023-04-16T07:00:41.222Z,32.07
2023-04-16T07:01:41.220Z,32.06
2023-04-16T07:02:41.402Z,32.04
2023-04-16T07:03:41.452Z,32.04
2023-04-16T07:04:41.334Z,32.06
2023-04-16T07:05:41.377Z,32.04
2023-04-16T07:06:41.411Z,32.06
2023-04-16T07:07:41.834Z,32.05
2023-04-16T07:08:41.508Z,32.04
2023-04-16T07:09:41.536Z,32.05
2023-04-16T07:10:41.577Z,32.06
2023-04-16T07:11:41.619Z,32.05
2023-04-16T07:12:41.665Z,32.07
2023-04-16T07:13:41.741Z,32.03
2023-04-16T07:14:41.724Z,32.04
2023-04-16T07:15:41.779Z,32.05
2023-04-16T07:16:41.832Z,32.03
2023-04-16T07:17:41.842Z,32.06
2023-04-16T07:18:41.881Z,32.07
2023-04-16T07:19:41.921Z,32.05
2023-04-16T07:20:41.960Z,32.03
2023-04-16T07:21:42.012Z,32.05
2023-04-16T07:22:42.043Z,32.04
2023-04-16T07:23:42.072Z,32.02
2023-04-16T07:24:42.121Z,32.06
2023-04-16T07:25:42.478Z,32.02
2023-04-16T07:26:42.202Z,32.07
2023-04-16T07:27:42.238Z,32.04
2023-04-16T07:28:42.284Z,32.05
2023-04-16T07:29:42.314Z,32.04
2023-04-16T07:30:42.368Z,32.05
2023-04-16T07:31:42.435Z,32.05
2023-04-16T07:32:42.486Z,32.04
2023-04-16T07:33:42.486Z,32.04
2023-04-16T07:34:42.553Z,32.07
2023-04-16T07:35:42.578Z,32.07
2023-04-16T07:36:42.604Z,32.06
2023-04-16T07:37:42.648Z,32.07
2023-04-16T07:38:42.704Z,32.04
2023-04-16T07:39:42.728Z,32.05
2023-04-16T07:40:42.776Z,32.05
2023-04-16T07:41:42.822Z,32.07
2023-04-16T07:42:42.858Z,32.04
2023-04-16T07:43:42.894Z,32.05
2023-04-16T07:44:42.945Z,32.08
2023-04-16T07:45:43.016Z,32.06
2023-04-16T07:46:47.265Z,32.04
2023-04-16T07:47:43.046Z,32.06
2023-04-16T07:48:43.013Z,32.08
2023-04-16T07:49:42.997Z,32.06
2023-04-16T07:50:42.987Z,32.04
2023-04-16T07:51:42.987Z,32.07
2023-04-16T07:52:42.973Z,32.06
2023-04-16T07:53:42.961Z,32.07
2023-04-16T07:54:42.949Z,32.08
2023-04-16T07:55:42.956Z,32.07
2023-04-16T07:56:42.935Z,32.05
2023-04-16T07:57:42.912Z,32.05
2023-04-16T07:58:42.934Z,32.06
2023-04-16T07:59:42.892Z,32.06
2023-04-16T08:00:42.889Z,32.06
2023-04-16T08:01:42.875Z,32.06
2023-04-16T08:02:42.981Z,32.05
2023-04-16T08:03:43.097Z,32.04
2023-04-16T08:04:43.243Z,32.06
2023-04-16T08:05:43.002Z,32.05
2023-04-16T08:06:43.039Z,32.06
2023-04-16T08:07:43.082Z,32.05
2023-04-16T08:08:43.122Z,32.05
2023-04-16T08:09:43.243Z,32.05
2023-04-16T08:10:43.187Z,32.04
2023-04-16T08:11:43.237Z,32.05
2023-04-16T08:12:43.283Z,32.04
2023-04-16T08:13:43.312Z,32.08
2023-04-16T08:14:43.345Z,32.03
2023-04-16T08:15:43.433Z,32.06
2023-04-16T08:16:43.468Z,32.05
2023-04-16T08:17:43.524Z,32.04
2023-04-16T08:18:43.561Z,32.06
2023-04-16T08:19:43.549Z,32.04
2023-04-16T08:20:43.628Z,32.05
2023-04-16T08:21:43.638Z,32.05
2023-04-16T08:22:43.669Z,32.07
2023-04-16T08:23:43.706Z,32.03
2023-04-16T08:24:43.750Z,32.05
2023-04-16T08:25:43.791Z,32.08
2023-04-16T08:26:43.820Z,32.06
2023-04-16T08:27:43.853Z,32.08
2023-04-16T08:28:43.897Z,32.07
2023-04-16T08:29:43.934Z,32.04
2023-04-16T08:30:43.974Z,32.04
2023-04-16T08:31:44.075Z,32.04
2023-04-16T08:32:44.103Z,32.06
2023-04-16T08:33:44.108Z,32.05
2023-04-16T08:34:44.111Z,32.07
2023-04-16T08:35:44.145Z,32.06
2023-04-16T08:36:44.185Z,32.05
2023-04-16T08:37:44.218Z,32.06
2023-04-16T08:38:44.259Z,32.07
2023-04-16T08:39:44.297Z,32.06
2023-04-16T08:40:44.338Z,32.07
2023-04-16T08:41:44.397Z,32.08
2023-04-16T08:42:44.401Z,32.07
2023-04-16T08:43:44.494Z,32.04
2023-04-16T08:44:44.473Z,32.04
2023-04-16T08:45:44.508Z,32.05
2023-04-16T08:46:44.683Z,32.06
2023-04-16T08:47:44.586Z,32.06
2023-04-16T08:48:44.620Z,32.06
2023-04-16T08:49:44.635Z,32.07
2023-04-16T08:50:44.673Z,32.02
2023-04-16T08:51:44.704Z,32.03
2023-04-16T08:52:44.745Z,32.03
2023-04-16T08:53:44.769Z,32.05
2023-04-16T08:54:44.802Z,32.03
2023-04-16T08:55:44.839Z,32.02
2023-04-16T08:56:44.868Z,32.03
2023-04-16T08:57:44.914Z,32.03
2023-04-16T08:58:44.942Z,32.04
2023-04-16T08:59:44.999Z,32.05
2023-04-16T09:00:45.007Z,32.04
2023-04-16T09:01:45.076Z,32.01
2023-04-16T09:02:45.148Z,32.00
2023-04-16T09:03:45.245Z,32.02
2023-04-16T09:04:45.211Z,32.01
2023-04-16T09:05:45.172Z,32.02
2023-04-16T09:06:45.194Z,32.01
2023-04-16T09:07:45.226Z,31.99
2023-04-16T09:08:45.262Z,32.01
2023-04-16T09:09:45.292Z,31.99
2023-04-16T09:10:45.322Z,31.99
2023-04-16T09:11:45.347Z,31.97
2023-04-16T09:12:45.373Z,31.98
2023-04-16T09:13:45.402Z,31.98
2023-04-16T09:14:45.433Z,31.99
2023-04-16T09:15:45.458Z,31.98
2023-04-16T09:16:45.643Z,31.97
2023-04-16T09:17:45.544Z,31.95
2023-04-16T09:18:45.545Z,31.95
2023-04-16T09:19:45.578Z,31.95
2023-04-16T09:20:45.598Z,31.95
2023-04-16T09:21:45.626Z,31.94
2023-04-16T09:22:45.660Z,31.93
2023-04-16T09:23:45.703Z,31.93
2023-04-16T09:24:45.714Z,31.93
2023-04-16T09:25:45.742Z,31.92
2023-04-16T09:26:45.764Z,31.91
2023-04-16T09:27:45.793Z,31.92
2023-04-16T09:28:45.834Z,31.89
2023-04-16T09:29:45.847Z,31.88
2023-04-16T09:30:45.879Z,31.88
2023-04-16T09:31:45.927Z,31.88
2023-04-16T09:32:45.968Z,31.87
2023-04-16T09:33:45.948Z,31.86
2023-04-16T09:34:45.974Z,31.86
2023-04-16T09:35:46.000Z,31.85
2023-04-16T09:36:46.048Z,31.87
2023-04-16T09:37:46.116Z,31.85
2023-04-16T09:38:46.158Z,31.86
2023-04-16T09:39:46.210Z,31.84
2023-04-16T09:40:46.261Z,31.86
2023-04-16T09:41:46.310Z,31.83
2023-04-16T09:42:46.347Z,31.85
2023-04-16T09:43:46.404Z,31.83
2023-04-16T09:44:46.457Z,31.80
2023-04-16T09:45:46.556Z,31.83
2023-04-16T09:46:46.578Z,31.84
2023-04-16T09:47:46.700Z,31.84
2023-04-16T09:48:46.664Z,31.83
2023-04-16T09:49:46.705Z,31.84
2023-04-16T09:50:46.769Z,31.83
2023-04-16T09:51:46.835Z,31.82
2023-04-16T09:52:46.876Z,31.83
2023-04-16T09:53:46.930Z,31.80
2023-04-16T09:54:46.986Z,31.82
2023-04-16T09:55:47.051Z,31.80
2023-04-16T09:56:47.082Z,31.82
2023-04-16T09:57:47.131Z,31.82
2023-04-16T09:58:47.177Z,31.80
2023-04-16T09:59:47.238Z,31.82
2023-04-16T10:00:47.305Z,31.83
2023-04-16T10:01:47.413Z,31.84
2023-04-16T10:02:49.239Z,31.84
2023-04-16T10:03:47.581Z,31.83
2023-04-16T10:04:47.536Z,31.85
2023-04-16T10:05:47.351Z,31.85
2023-04-16T10:06:47.371Z,31.86
2023-04-16T10:07:47.348Z,31.85
2023-04-16T10:08:49.610Z,31.85
2023-04-16T10:09:47.335Z,31.86
2023-04-16T10:10:47.312Z,31.85
2023-04-16T10:11:47.300Z,31.86
2023-04-16T10:12:47.286Z,31.86
2023-04-16T10:13:47.317Z,31.90
2023-04-16T10:14:48.941Z,31.87
2023-04-16T10:15:47.264Z,31.89
2023-04-16T10:16:47.307Z,31.86
2023-04-16T10:17:47.323Z,31.87
2023-04-16T10:18:47.278Z,31.89
2023-04-16T10:19:47.234Z,31.87
2023-04-16T10:20:47.221Z,31.87
2023-04-16T10:21:47.229Z,31.90
2023-04-16T10:22:47.207Z,31.89
2023-04-16T10:23:47.200Z,31.88
2023-04-16T10:24:47.195Z,31.88
2023-04-16T10:25:47.190Z,31.90
2023-04-16T10:26:47.176Z,31.89
2023-04-16T10:27:47.180Z,31.92
2023-04-16T10:28:47.160Z,31.90
2023-04-16T10:29:47.153Z,31.88
2023-04-16T10:30:47.185Z,31.89
2023-04-16T10:31:47.168Z,31.91
2023-04-16T10:32:47.148Z,31.90
2023-04-16T10:33:47.109Z,31.90
2023-04-16T10:34:47.090Z,31.90
2023-04-16T10:35:52.445Z,31.91
2023-04-16T10:36:48.083Z,31.91
2023-04-16T10:37:47.072Z,31.89
2023-04-16T10:38:47.050Z,31.91
2023-04-16T10:39:47.039Z,31.90
2023-04-16T10:40:47.023Z,31.92
2023-04-16T10:41:47.009Z,31.90
2023-04-16T10:42:47.009Z,31.92
2023-04-16T10:43:46.997Z,31.92
2023-04-16T10:44:47.004Z,31.92
2023-04-16T10:45:47.079Z,31.91
2023-04-16T10:46:47.117Z,31.90
2023-04-16T10:47:47.207Z,31.88
2023-04-16T10:48:50.341Z,31.89
2023-04-16T10:49:47.216Z,31.87
2023-04-16T10:50:47.213Z,31.88
2023-04-16T10:51:47.194Z,31.88
2023-04-16T10:52:47.182Z,31.90
2023-04-16T10:53:47.170Z,31.89
2023-04-16T10:54:47.156Z,31.87
2023-04-16T10:55:47.139Z,31.87
2023-04-16T10:56:47.124Z,31.87
2023-04-16T10:57:47.131Z,31.86
2023-04-16T10:58:47.105Z,31.85
2023-04-16T10:59:47.109Z,31.87
2023-04-16T11:00:47.094Z,31.86
2023-04-16T11:01:47.141Z,31.85
2023-04-16T11:02:47.279Z,31.87
2023-04-16T11:03:47.150Z,31.85
2023-04-16T11:04:47.342Z,31.86
2023-04-16T11:05:47.052Z,31.87
2023-04-16T11:06:47.019Z,31.85
2023-04-16T11:07:48.018Z,31.85
2023-04-16T11:08:54.445Z,31.85
2023-04-16T11:09:48.026Z,31.85
2023-04-16T11:10:46.994Z,31.86
2023-04-16T11:11:46.980Z,31.83
2023-04-16T11:12:47.002Z,31.84
2023-04-16T11:13:46.976Z,31.84
2023-04-16T11:14:46.979Z,31.84
2023-04-16T11:15:46.993Z,31.85
2023-04-16T11:16:46.960Z,31.83
2023-04-16T11:17:47.002Z,31.84
2023-04-16T11:18:50.856Z,31.83
2023-04-16T11:19:46.941Z,31.82
2023-04-16T11:20:46.929Z,31.82
2023-04-16T11:21:46.917Z,31.79
2023-04-16T11:22:46.926Z,31.81
2023-04-16T11:23:46.907Z,31.82
2023-04-16T11:24:46.896Z,31.80
2023-04-16T11:25:46.896Z,31.82
2023-04-16T11:26:46.878Z,31.80
2023-04-16T11:27:46.894Z,31.80
2023-04-16T11:28:46.869Z,31.80
2023-04-16T11:29:47.634Z,31.80
2023-04-16T11:30:46.921Z,31.81
2023-04-16T11:31:46.909Z,31.80
2023-04-16T11:32:46.941Z,31.78
2023-04-16T11:33:46.814Z,31.78
2023-04-16T11:34:46.802Z,31.79
2023-04-16T11:35:46.808Z,31.80
2023-04-16T11:36:46.792Z,31.80
2023-04-16T11:37:46.806Z,31.80
2023-04-16T11:38:46.765Z,31.78
2023-04-16T11:39:46.749Z,31.78
2023-04-16T11:40:47.742Z,31.82
2023-04-16T11:41:46.745Z,31.81
2023-04-16T11:42:46.732Z,31.79
2023-04-16T11:43:46.724Z,31.79
2023-04-16T11:44:46.704Z,31.76
2023-04-16T11:45:46.689Z,31.79
2023-04-16T11:46:46.722Z,31.76
2023-04-16T11:47:46.741Z,31.76
2023-04-16T11:48:46.664Z,31.78
2023-04-16T11:49:46.652Z,31.77
2023-04-16T11:50:46.648Z,31.78
2023-04-16T11:51:46.630Z,31.79
2023-04-16T11:52:46.629Z,31.80
2023-04-16T11:53:46.625Z,31.81
2023-04-16T11:54:46.606Z,31.82
2023-04-16T11:55:46.606Z,31.83
2023-04-16T11:56:46.608Z,31.80
2023-04-16T11:57:46.584Z,31.83
2023-04-16T11:58:46.578Z,31.80
2023-04-16T12:00:01.742Z,31.83
2023-04-16T12:00:47.564Z,31.85
2023-04-16T12:01:46.580Z,31.85
2023-04-16T12:02:46.717Z,31.86
2023-04-16T12:03:46.856Z,31.85
2023-04-16T12:04:46.658Z,31.84
2023-04-16T12:05:46.507Z,31.86
2023-04-16T12:06:46.681Z,31.84
2023-04-16T12:07:46.489Z,31.84
2023-04-16T12:08:46.508Z,31.81
2023-04-16T12:09:46.464Z,31.80
2023-04-16T12:10:46.453Z,31.86
2023-04-16T12:11:46.440Z,31.87
2023-04-16T12:12:46.429Z,31.86
2023-04-16T12:13:46.426Z,31.88
2023-04-16T12:14:46.407Z,31.88
2023-04-16T12:15:46.400Z,31.87
2023-04-16T12:16:46.434Z,31.89
2023-04-16T12:17:46.461Z,31.86
2023-04-16T12:18:46.370Z,31.89
2023-04-16T12:19:46.363Z,31.90
2023-04-16T12:20:46.345Z,31.90
2023-04-16T12:21:46.341Z,31.88
2023-04-16T12:22:46.339Z,31.89
2023-04-16T12:23:46.329Z,31.89
2023-04-16T12:24:46.306Z,31.90
2023-04-16T12:25:46.302Z,31.92
2023-04-16T12:26:46.389Z,31.88
2023-04-16T12:27:46.287Z,31.88
2023-04-16T12:28:46.302Z,31.89
2023-04-16T12:29:47.068Z,31.88
2023-04-16T12:30:46.344Z,31.92
2023-04-16T12:31:46.342Z,31.91
2023-04-16T12:32:46.355Z,31.91
2023-04-16T12:33:46.376Z,31.88
2023-04-16T12:34:48.136Z,31.91
2023-04-16T12:35:46.375Z,31.94
2023-04-16T12:36:46.377Z,31.91
2023-04-16T12:37:46.348Z,31.93
2023-04-16T12:38:46.336Z,31.94
2023-04-16T12:39:47.903Z,31.93
2023-04-16T12:40:46.301Z,31.96
2023-04-16T12:41:46.296Z,31.92
2023-04-16T12:42:46.286Z,31.96
2023-04-16T12:43:46.265Z,31.96
2023-04-16T12:44:46.264Z,31.95
2023-04-16T12:45:46.279Z,31.95
2023-04-16T12:46:46.442Z,31.96
2023-04-16T12:47:46.322Z,31.96
2023-04-16T12:48:46.240Z,31.96
2023-04-16T12:49:47.080Z,31.97
2023-04-16T12:50:46.229Z,31.98
2023-04-16T12:51:46.201Z,31.96
2023-04-16T12:52:46.183Z,31.95